createdAt,value
2022-12-17T00:00:24.552Z,85.11
2022-12-17T00:03:48.046Z,87.29
2022-12-17T00:07:09.493Z,86.36
2022-12-17T00:10:29.822Z,85.87
2022-12-17T00:13:50.013Z,85.75
2022-12-17T00:17:11.748Z,86.54
2022-12-17T00:20:32.000Z,86.57
2022-12-17T00:23:53.630Z,86.74
2022-12-17T00:27:16.789Z,86.61
2022-12-17T00:30:37.042Z,86.83
2022-12-17T00:33:57.384Z,87.62
2022-12-17T00:37:18.200Z,87.21
2022-12-17T00:40:39.782Z,87.84
2022-12-17T00:43:59.916Z,87.08
2022-12-17T00:47:20.185Z,88.17
2022-12-17T00:50:36.733Z,87.63
2022-12-17T00:53:56.989Z,87.29
2022-12-17T00:57:18.571Z,88.24
2022-12-17T01:00:50.289Z,88.17
2022-12-17T01:04:10.488Z,87.63
2022-12-17T01:07:30.759Z,87.97
2022-12-17T01:10:50.966Z,87.33
2022-12-17T01:14:12.569Z,87.84
2022-12-17T01:17:32.821Z,87.30
2022-12-17T01:20:53.212Z,88.82
2022-12-17T01:24:14.152Z,88.42
2022-12-17T01:27:34.308Z,88.54
2022-12-17T01:30:56.828Z,88.08
2022-12-17T01:34:17.080Z,88.04
2022-12-17T01:37:37.154Z,87.84
2022-12-17T01:40:57.357Z,87.34
2022-12-17T01:44:17.703Z,87.21
2022-12-17T01:47:39.484Z,87.07
2022-12-17T01:51:02.784Z,86.73
2022-12-17T01:54:23.459Z,87.59
2022-12-17T01:57:44.204Z,87.59
2022-12-17T02:01:04.576Z,87.83
2022-12-17T02:04:27.605Z,87.25
2022-12-17T02:08:01.990Z,87.45
2022-12-17T02:11:33.841Z,87.10
2022-12-17T02:15:00.363Z,87.03
2022-12-17T02:18:26.964Z,87.14
2022-12-17T02:21:51.085Z,87.75
2022-12-17T02:25:31.781Z,86.59
2022-12-17T02:28:59.918Z,87.03
2022-12-17T02:32:21.117Z,87.23
2022-12-17T02:35:45.853Z,86.51
2022-12-17T02:39:06.115Z,87.49
2022-12-17T02:42:26.371Z,87.39
2022-12-17T02:45:48.046Z,87.31
2022-12-17T02:49:08.442Z,87.35
2022-12-17T02:52:34.788Z,87.29
2022-12-17T02:55:55.956Z,87.35
2022-12-17T02:59:21.633Z,86.74
2022-12-17T03:02:43.365Z,86.11
2022-12-17T03:06:03.594Z,86.20
2022-12-17T03:09:23.951Z,85.13
2022-12-17T03:12:44.141Z,85.87
2022-12-17T03:16:04.442Z,86.54
2022-12-17T03:19:27.334Z,86.50
2022-12-17T03:22:47.727Z,85.61
2022-12-17T03:26:08.060Z,86.85
2022-12-17T03:29:28.328Z,85.92
2022-12-17T03:32:48.563Z,86.40
2022-12-17T03:36:12.948Z,85.09
2022-12-17T03:39:33.167Z,85.50
2022-12-17T03:42:53.461Z,84.44
2022-12-17T03:46:28.308Z,85.17
2022-12-17T03:49:48.315Z,84.60
2022-12-17T03:53:09.994Z,84.68
2022-12-17T03:56:30.396Z,85.17
2022-12-17T03:59:50.443Z,84.77
2022-12-17T04:03:11.183Z,84.76
2022-12-17T04:06:31.409Z,84.12
2022-12-17T04:09:53.210Z,83.97
2022-12-17T04:13:13.386Z,84.71
2022-12-17T04:16:33.727Z,84.74
2022-12-17T04:19:54.035Z,83.65
2022-12-17T04:23:14.376Z,82.54
2022-12-17T04:26:35.873Z,83.54
2022-12-17T04:29:56.189Z,82.72
2022-12-17T04:33:16.410Z,82.96
2022-12-17T04:36:36.798Z,83.56
2022-12-17T04:39:56.982Z,82.61
2022-12-17T04:43:25.643Z,82.24
2022-12-17T04:46:45.981Z,82.48
2022-12-17T04:50:06.208Z,82.50
2022-12-17T04:53:26.482Z,81.91
2022-12-17T04:56:46.745Z,82.13
2022-12-17T05:00:08.370Z,81.76
2022-12-17T05:03:30.726Z,81.81
2022-12-17T05:06:51.041Z,81.51
2022-12-17T05:10:11.344Z,81.51
2022-12-17T05:13:31.650Z,81.10
2022-12-17T05:16:53.027Z,80.91
2022-12-17T05:20:13.365Z,81.38
2022-12-17T05:23:33.897Z,80.39
2022-12-17T05:26:54.469Z,81.15
2022-12-17T05:30:17.264Z,81.12
2022-12-17T05:33:39.191Z,80.67
2022-12-17T05:36:59.724Z,82.30
2022-12-17T05:40:20.004Z,81.95
2022-12-17T05:43:40.022Z,81.64
2022-12-17T05:47:00.318Z,82.18
2022-12-17T05:50:22.742Z,80.76
2022-12-17T05:53:39.470Z,81.81
2022-12-17T05:56:59.889Z,80.37
2022-12-17T06:00:20.249Z,80.17
2022-12-17T06:03:40.905Z,80.49
2022-12-17T06:07:02.772Z,80.64
2022-12-17T06:10:23.611Z,80.05
2022-12-17T06:13:43.888Z,80.24
2022-12-17T06:17:04.041Z,80.83
2022-12-17T06:20:27.019Z,80.75
2022-12-17T06:23:48.445Z,80.53
2022-12-17T06:27:08.883Z,81.14
2022-12-17T06:30:26.321Z,81.70
2022-12-17T06:33:46.497Z,81.09
2022-12-17T06:37:06.761Z,81.46
2022-12-17T06:40:29.564Z,81.66
2022-12-17T06:43:49.809Z,81.97
2022-12-17T06:47:10.189Z,81.38
2022-12-17T06:50:30.508Z,80.99
2022-12-17T06:53:50.847Z,81.77
2022-12-17T06:57:23.752Z,81.41
2022-12-17T07:00:44.551Z,82.08
2022-12-17T07:04:05.016Z,81.06
2022-12-17T07:07:25.313Z,81.29
2022-12-17T07:10:45.603Z,81.97
2022-12-17T07:14:07.451Z,80.92
2022-12-17T07:17:27.657Z,81.12
2022-12-17T07:20:47.830Z,80.95
2022-12-17T07:24:08.063Z,80.30
2022-12-17T07:27:28.316Z,80.53
2022-12-17T07:30:55.508Z,81.18
2022-12-17T07:34:15.899Z,80.45
2022-12-17T07:37:36.208Z,79.94
2022-12-17T07:40:56.384Z,80.24
2022-12-17T07:44:17.568Z,80.66
2022-12-17T07:47:39.113Z,81.28
2022-12-17T07:50:59.409Z,82.03
2022-12-17T07:54:19.667Z,81.62
2022-12-17T07:57:40.066Z,81.22
2022-12-17T08:01:00.304Z,81.17
2022-12-17T08:04:21.845Z,81.43
2022-12-17T08:07:42.096Z,81.89
2022-12-17T08:11:07.416Z,80.58
2022-12-17T08:14:27.672Z,80.91
2022-12-17T08:17:47.921Z,81.59
2022-12-17T08:21:09.417Z,80.67
2022-12-17T08:24:29.733Z,81.75
2022-12-17T08:27:49.872Z,81.57
2022-12-17T08:31:10.217Z,81.82
2022-12-17T08:34:30.521Z,82.34
2022-12-17T08:38:03.466Z,82.53
2022-12-17T08:41:23.492Z,82.78
2022-12-17T08:44:43.669Z,82.64
2022-12-17T08:48:04.448Z,82.47
2022-12-17T08:51:36.255Z,83.00
2022-12-17T08:54:57.847Z,83.11
2022-12-17T08:58:18.174Z,83.35
2022-12-17T09:01:38.419Z,83.72
2022-12-17T09:04:58.349Z,85.80
2022-12-17T09:08:21.328Z,85.19
2022-12-17T09:11:42.761Z,85.51
2022-12-17T09:15:03.250Z,85.35
2022-12-17T09:18:23.607Z,84.33
2022-12-17T09:21:45.416Z,86.24
2022-12-17T09:25:05.574Z,85.35
2022-12-17T09:28:27.104Z,85.43
2022-12-17T09:31:48.275Z,85.34
2022-12-17T09:35:08.653Z,86.21
2022-12-17T09:38:30.983Z,85.13
2022-12-17T09:42:01.824Z,86.21
2022-12-17T09:45:30.445Z,86.09
2022-12-17T09:48:58.942Z,85.73
2022-12-17T09:52:19.153Z,85.60
2022-12-17T09:55:44.063Z,86.67
2022-12-17T09:59:04.310Z,86.59
2022-12-17T10:02:32.195Z,86.92
2022-12-17T10:05:53.899Z,86.35
2022-12-17T10:09:16.649Z,85.37
2022-12-17T10:12:38.863Z,85.32
2022-12-17T10:16:00.275Z,87.42
2022-12-17T10:19:22.363Z,86.52
2022-12-17T10:22:42.660Z,86.43
2022-12-17T10:26:10.079Z,86.10
2022-12-17T10:29:45.704Z,86.59
2022-12-17T10:33:14.200Z,86.82
2022-12-17T10:36:42.650Z,86.84
2022-12-17T10:40:11.577Z,86.59
2022-12-17T10:43:42.536Z,86.33
2022-12-17T10:47:02.807Z,84.49
2022-12-17T10:50:27.509Z,86.17
2022-12-17T10:53:49.076Z,85.05
2022-12-17T10:57:20.112Z,83.93
2022-12-17T11:00:47.415Z,80.63
2022-12-17T11:04:11.725Z,77.40
2022-12-17T11:07:37.432Z,75.53
2022-12-17T11:11:01.434Z,70.48
2022-12-17T11:14:24.096Z,65.87
2022-12-17T11:17:45.034Z,68.18
2022-12-17T11:21:12.681Z,69.70
2022-12-17T11:24:41.016Z,71.99
2022-12-17T11:28:06.705Z,74.05
2022-12-17T11:31:50.642Z,75.30
2022-12-17T11:35:22.029Z,78.03
2022-12-17T11:38:51.634Z,80.08
2022-12-17T11:42:18.200Z,79.17
2022-12-17T11:45:48.234Z,79.12
2022-12-17T11:49:20.584Z,80.62
2022-12-17T11:52:52.570Z,80.53
2022-12-17T11:56:18.913Z,80.16
2022-12-17T11:59:52.514Z,80.53
2022-12-17T12:03:24.144Z,80.75
2022-12-17T12:06:54.556Z,81.14
2022-12-17T12:10:17.966Z,81.56
2022-12-17T12:13:56.294Z,82.88
2022-12-17T12:17:26.334Z,82.89
2022-12-17T12:21:03.602Z,84.32
2022-12-17T12:24:36.039Z,84.81
2022-12-17T12:28:03.993Z,84.89
2022-12-17T12:31:33.279Z,85.27
2022-12-17T12:34:55.986Z,84.81
2022-12-17T12:38:19.463Z,83.01
2022-12-17T12:41:48.282Z,82.15
2022-12-17T12:45:18.623Z,82.20
2022-12-17T12:49:05.123Z,79.93
2022-12-17T12:52:33.584Z,75.51
2022-12-17T12:55:59.503Z,72.42
2022-12-17T12:59:29.921Z,71.50
2022-12-17T13:02:51.520Z,70.55
2022-12-17T13:05:55.330Z,70.36
2022-12-17T13:09:06.045Z,72.92
2022-12-17T13:12:25.353Z,73.47
2022-12-17T13:15:37.116Z,75.71
2022-12-17T13:18:40.760Z,74.58
2022-12-17T13:21:43.850Z,75.20
2022-12-17T13:24:48.170Z,75.83
2022-12-17T13:27:52.195Z,77.95
2022-12-17T13:31:18.700Z,78.32
2022-12-17T13:34:27.041Z,77.72
2022-12-17T13:37:41.345Z,78.18
2022-12-17T13:40:47.579Z,79.20
2022-12-17T13:43:54.309Z,78.18
2022-12-17T13:46:56.966Z,78.19
2022-12-17T13:50:32.804Z,79.22
2022-12-17T13:53:24.180Z,78.26
2022-12-17T13:56:29.239Z,79.37
2022-12-17T13:59:33.195Z,79.35
2022-12-17T14:02:39.264Z,79.59
2022-12-17T14:05:45.929Z,79.46
2022-12-17T14:08:50.607Z,79.48
2022-12-17T14:12:11.291Z,80.23
2022-12-17T14:15:24.252Z,80.50
2022-12-17T14:18:26.940Z,80.11
2022-12-17T14:21:30.474Z,80.14
2022-12-17T14:24:33.775Z,80.58
2022-12-17T14:27:37.625Z,81.15
2022-12-17T14:31:09.678Z,80.46
2022-12-17T14:34:08.738Z,80.96
2022-12-17T14:37:18.418Z,81.42
2022-12-17T14:40:21.162Z,81.21
2022-12-17T14:43:29.917Z,81.90
2022-12-17T14:46:35.847Z,82.58
2022-12-17T14:49:50.897Z,82.60
2022-12-17T14:52:59.969Z,82.56
2022-12-17T14:56:02.583Z,82.93
2022-12-17T14:59:05.143Z,82.79
2022-12-17T15:02:20.761Z,82.80
2022-12-17T15:05:23.508Z,82.30
2022-12-17T15:08:26.368Z,82.07
2022-12-17T15:11:28.936Z,81.90
2022-12-17T15:14:31.487Z,82.14
2022-12-17T15:17:35.414Z,82.41
2022-12-17T15:20:38.329Z,81.79
2022-12-17T15:23:44.000Z,80.33
2022-12-17T15:26:46.974Z,80.74
2022-12-17T15:29:49.541Z,80.99
2022-12-17T15:32:53.515Z,81.05
2022-12-17T15:35:58.662Z,81.41
2022-12-17T15:39:01.373Z,81.63
2022-12-17T15:42:21.340Z,81.25
2022-12-17T15:45:26.803Z,81.16
2022-12-17T15:48:31.168Z,81.81
2022-12-17T15:51:33.769Z,81.33
2022-12-17T15:54:36.333Z,81.14
2022-12-17T15:57:38.909Z,80.90
2022-12-17T16:00:41.514Z,81.69
2022-12-17T16:03:45.556Z,81.34
2022-12-17T16:06:48.192Z,81.66
2022-12-17T16:09:50.816Z,80.87
2022-12-17T16:12:53.375Z,80.36
2022-12-17T16:16:02.124Z,81.30
2022-12-17T16:19:07.726Z,81.35
2022-12-17T16:22:10.325Z,81.41
2022-12-17T16:25:13.276Z,80.89
2022-12-17T16:28:15.845Z,81.24
2022-12-17T16:31:18.481Z,80.65
2022-12-17T16:34:22.498Z,81.36
2022-12-17T16:37:25.071Z,81.53
2022-12-17T16:40:28.134Z,81.24
2022-12-17T16:43:35.200Z,80.97
2022-12-17T16:46:39.909Z,80.67
2022-12-17T16:49:43.905Z,81.25
2022-12-17T16:52:47.519Z,80.60
2022-12-17T16:55:50.844Z,80.21
2022-12-17T16:58:53.496Z,80.71
2022-12-17T17:01:57.073Z,80.48
2022-12-17T17:05:01.166Z,80.71
2022-12-17T17:08:03.850Z,80.41
2022-12-17T17:11:11.945Z,80.39
2022-12-17T17:14:14.551Z,80.88
2022-12-17T17:17:17.129Z,80.12
2022-12-17T17:20:21.097Z,81.38
2022-12-17T17:23:23.661Z,81.32
2022-12-17T17:26:27.008Z,81.25
2022-12-17T17:29:29.609Z,81.35
2022-12-17T17:32:32.251Z,81.42
2022-12-17T17:35:36.198Z,81.26
2022-12-17T17:38:40.924Z,81.82
2022-12-17T17:41:43.673Z,81.58
2022-12-17T17:44:46.233Z,81.79
2022-12-17T17:47:48.828Z,81.33
2022-12-17T17:51:04.201Z,81.13
2022-12-17T17:54:12.563Z,81.59
2022-12-17T17:57:16.870Z,82.04
2022-12-17T18:00:19.627Z,81.61
2022-12-17T18:03:22.256Z,81.16
2022-12-17T18:06:27.366Z,81.27
2022-12-17T18:09:30.009Z,81.91
2022-12-17T18:12:50.275Z,82.10
2022-12-17T18:15:52.866Z,80.87
2022-12-17T18:18:56.785Z,81.74
2022-12-17T18:22:00.726Z,81.63
2022-12-17T18:25:03.449Z,81.65
2022-12-17T18:28:06.060Z,81.79
2022-12-17T18:31:10.807Z,81.58
2022-12-17T18:34:14.780Z,81.87
2022-12-17T18:37:18.757Z,81.79
2022-12-17T18:40:21.358Z,81.98
2022-12-17T18:43:25.944Z,81.33
2022-12-17T18:46:28.678Z,81.56
2022-12-17T18:49:31.280Z,81.12
2022-12-17T18:52:35.234Z,81.28
2022-12-17T18:55:40.378Z,81.99
2022-12-17T18:58:43.598Z,81.82
2022-12-17T19:01:46.993Z,82.28
2022-12-17T19:04:49.751Z,82.15
2022-12-17T19:07:53.701Z,82.10
2022-12-17T19:10:56.264Z,82.21
2022-12-17T19:13:59.067Z,82.21
2022-12-17T19:17:01.889Z,82.66
2022-12-17T19:20:04.998Z,82.31
2022-12-17T19:23:08.949Z,82.50
2022-12-17T19:26:14.015Z,81.27
2022-12-17T19:29:18.864Z,81.91
2022-12-17T19:32:21.467Z,81.35
2022-12-17T19:35:24.062Z,81.71
2022-12-17T19:38:28.093Z,81.19
2022-12-17T19:41:31.929Z,82.30
2022-12-17T19:44:34.495Z,81.33
2022-12-17T19:47:37.076Z,81.71
2022-12-17T19:50:39.633Z,81.52
2022-12-17T19:53:45.045Z,81.22
2022-12-17T19:56:47.654Z,80.87
2022-12-17T19:59:50.216Z,80.96
2022-12-17T20:02:52.995Z,81.61
2022-12-17T20:05:55.863Z,81.59
2022-12-17T20:09:00.522Z,81.86
2022-12-17T20:12:03.145Z,81.13
2022-12-17T20:15:06.587Z,80.56
2022-12-17T20:18:09.197Z,80.87
2022-12-17T20:21:11.771Z,80.54
2022-12-17T20:24:16.579Z,80.21
2022-12-17T20:27:19.623Z,80.59
2022-12-17T20:30:25.238Z,79.88
2022-12-17T20:33:27.848Z,80.93
2022-12-17T20:36:30.507Z,79.62
2022-12-17T20:39:34.546Z,79.93
2022-12-17T20:42:37.226Z,80.23
2022-12-17T20:45:39.925Z,80.70
2022-12-17T20:48:44.094Z,79.93
2022-12-17T20:51:46.702Z,80.35
2022-12-17T20:54:50.612Z,79.19
2022-12-17T20:57:53.357Z,79.02
2022-12-17T21:01:04.096Z,80.10
2022-12-17T21:04:07.413Z,79.73
2022-12-17T21:07:10.036Z,79.09
2022-12-17T21:10:14.150Z,79.85
2022-12-17T21:13:32.024Z,79.14
2022-12-17T21:16:35.027Z,78.93
2022-12-17T21:19:37.966Z,80.17
2022-12-17T21:22:41.529Z,79.86
2022-12-17T21:25:45.446Z,79.52
2022-12-17T21:28:49.899Z,79.30
2022-12-17T21:31:53.371Z,79.63
2022-12-17T21:34:56.055Z,79.77
2022-12-17T21:37:58.657Z,78.34
2022-12-17T21:41:07.568Z,78.01
2022-12-17T21:44:13.917Z,78.96
2022-12-17T21:47:18.161Z,78.56
2022-12-17T21:50:20.777Z,79.77
2022-12-17T21:53:24.155Z,79.02
2022-12-17T21:56:30.731Z,79.35
2022-12-17T21:59:33.320Z,79.26
2022-12-17T22:02:36.042Z,79.67
2022-12-17T22:05:39.328Z,79.04
2022-12-17T22:08:43.029Z,78.95
2022-12-17T22:11:47.437Z,79.70
2022-12-17T22:14:49.378Z,79.16
2022-12-17T22:17:53.607Z,79.50
2022-12-17T22:20:58.141Z,79.73
2022-12-17T22:24:00.730Z,79.34
2022-12-17T22:27:09.459Z,78.61
2022-12-17T22:30:33.213Z,78.05
2022-12-17T22:34:16.676Z,78.41
2022-12-17T22:40:37.273Z,78.86
2022-12-17T22:44:15.006Z,78.04
2022-12-17T22:44:43.046Z,78.51
2022-12-17T22:47:07.615Z,79.10
2022-12-17T22:50:10.989Z,78.69
2022-12-17T22:53:14.152Z,77.82
2022-12-17T22:56:49.459Z,78.29
2022-12-17T22:59:41.663Z,78.75
2022-12-17T23:02:44.344Z,79.29
2022-12-17T23:05:47.159Z,79.39
2022-12-17T23:08:49.801Z,78.44
2022-12-17T23:11:52.377Z,79.18
2022-12-17T23:14:56.299Z,78.83
2022-12-17T23:18:01.373Z,78.28
2022-12-17T23:21:08.587Z,78.48
2022-12-17T23:24:11.279Z,77.73
2022-12-17T23:27:13.879Z,77.86
2022-12-17T23:30:18.525Z,78.52
2022-12-17T23:33:21.199Z,79.04
2022-12-17T23:36:25.817Z,79.10
2022-12-17T23:39:28.414Z,77.54
2022-12-17T23:42:31.102Z,77.45
2022-12-17T23:45:35.037Z,77.49
2022-12-17T23:48:45.360Z,78.09
2022-12-17T23:51:48.478Z,77.03
2022-12-17T23:54:51.036Z,76.85
2022-12-17T23:57:56.629Z,77.63
